Time;durP1;ratioP1;P1;durP2;ratioP2;P2;SDS_P1;SDS_P2;PMS_P1;PMS_P2;Temp;Humidity;BMP_temperature;BMP_pressure;BME280_temperature;BME280_humidity;BME280_pressure;Samples;Min_cycle;Max_cycle;Signal;HPM_P1;HPM_P2
2021/04/17 00:01:34;;;;;;;9.65;6.90;;;6.10;99.90;;;;;;5033716;28;20211;-80
2021/04/17 00:04:00;;;;;;;8.68;6.30;;;6.20;99.90;;;;;;5033620;28;20259;-80
2021/04/17 00:06:27;;;;;;;8.73;6.45;;;6.30;99.90;;;;;;5032602;28;20251;-78
2021/04/17 00:08:53;;;;;;;9.40;6.60;;;6.30;99.90;;;;;;5033048;28;20211;-79
2021/04/17 00:11:21;;;;;;;9.00;6.80;;;6.10;99.90;;;;;;5031854;28;20215;-78
2021/04/17 00:13:48;;;;;;;9.52;6.85;;;6.20;99.90;;;;;;5032120;28;20350;-78
2021/04/17 00:16:14;;;;;;;10.63;7.35;;;6.20;99.90;;;;;;5032825;28;20207;-80
2021/04/17 00:18:40;;;;;;;7.97;6.15;;;6.10;99.90;;;;;;5033103;28;20752;-78
2021/04/17 00:21:07;;;;;;;8.13;5.97;;;6.20;99.90;;;;;;5035464;28;20370;-79
2021/04/17 00:23:33;;;;;;;9.60;6.55;;;5.90;99.90;;;;;;5033466;28;20246;-79
2021/04/17 00:26:00;;;;;;;9.15;6.47;;;5.80;99.90;;;;;;5035231;28;20657;-79
2021/04/17 00:28:27;;;;;;;11.40;7.93;;;6.00;99.90;;;;;;5034385;28;20298;-79
2021/04/17 00:30:54;;;;;;;11.77;7.40;;;6.10;99.90;;;;;;5035938;28;20203;-79
2021/04/17 00:33:20;;;;;;;9.80;7.63;;;5.90;99.90;;;;;;5035349;28;20235;-79
2021/04/17 00:35:47;;;;;;;10.60;7.35;;;6.10;99.90;;;;;;5040744;28;20321;-78
2021/04/17 00:38:13;;;;;;;9.52;6.85;;;6.00;99.90;;;;;;5052886;28;20203;-79
2021/04/17 00:40:40;;;;;;;10.18;7.20;;;6.00;99.90;;;;;;5037076;28;20210;-79
2021/04/17 00:43:06;;;;;;;9.07;6.80;;;6.00;99.90;;;;;;5034899;28;20227;-79
2021/04/17 00:45:34;;;;;;;7.85;6.40;;;6.00;99.90;;;;;;5034863;28;20300;-78
2021/04/17 00:48:00;;;;;;;8.73;6.55;;;5.90;99.90;;;;;;5034263;28;20617;-78
2021/04/17 00:50:27;;;;;;;9.20;7.25;;;5.70;99.90;;;;;;5034486;28;20297;-79
2021/04/17 00:52:53;;;;;;;8.93;6.45;;;5.70;99.90;;;;;;5034320;28;20239;-78
2021/04/17 00:55:20;;;;;;;10.25;7.30;;;5.60;99.90;;;;;;5035223;28;20252;-79
2021/04/17 00:57:46;;;;;;;9.55;6.97;;;5.80;99.90;;;;;;5035260;28;20235;-79
2021/04/17 01:00:14;;;;;;;10.70;7.80;;;5.70;99.90;;;;;;5034880;28;20202;-80
2021/04/17 01:02:47;;;;;;;11.70;7.25;;;5.60;99.90;;;;;;5040715;28;20233;-80
2021/04/17 01:05:17;;;;;;;12.00;7.70;;;5.70;99.90;;;;;;5036582;28;20211;-80
2021/04/17 01:07:47;;;;;;;11.45;7.82;;;5.80;99.90;;;;;;5035258;28;20344;-79
2021/04/17 01:10:21;;;;;;;9.88;7.10;;;5.50;99.90;;;;;;5033258;28;20833;-78
2021/04/17 01:12:52;;;;;;;12.70;6.72;;;5.70;99.90;;;;;;5035108;28;20361;-78
2021/04/17 01:15:19;;;;;;;8.15;6.15;;;5.70;99.90;;;;;;5040761;28;20207;-79
2021/04/17 01:17:49;;;;;;;9.10;7.20;;;5.70;99.90;;;;;;5039724;28;20211;-78
2021/04/17 01:20:22;;;;;;;15.70;8.07;;;5.70;99.90;;;;;;5033829;28;20299;-79
2021/04/17 01:23:02;;;;;;;9.10;6.63;;;5.80;99.90;;;;;;5034850;28;20631;-79
2021/04/17 01:25:38;;;;;;;9.30;6.50;;;5.80;99.90;;;;;;5032540;28;20203;-79
2021/04/17 01:28:05;;;;;;;9.70;6.65;;;5.80;99.90;;;;;;5033833;28;20775;-79
2021/04/17 01:30:31;;;;;;;10.98;7.85;;;5.60;99.90;;;;;;5032391;28;20207;-79
2021/04/17 01:32:58;;;;;;;9.43;7.13;;;5.40;99.90;;;;;;5030881;28;20604;-80
2021/04/17 01:35:24;;;;;;;11.10;7.07;;;5.30;99.90;;;;;;5033158;28;20217;-79
2021/04/17 01:38:19;;;;;;;9.77;6.85;;;5.30;99.90;;;;;;5046495;28;20199;-79
2021/04/17 01:40:49;;;;;;;9.70;7.22;;;5.30;99.90;;;;;;5031133;28;20345;-79
2021/04/17 01:43:17;;;;;;;11.15;8.07;;;5.50;99.90;;;;;;5030765;28;20227;-79
2021/04/17 01:45:46;;;;;;;8.65;6.22;;;5.30;99.90;;;;;;5030983;28;20250;-79
2021/04/17 02:05:04;;;;;;;9.82;7.25;;;5.40;99.90;;;;;;5025376;28;20257;-78
2021/04/17 02:07:30;;;;;;;10.52;7.55;;;5.30;99.90;;;;;;5031356;28;20254;-78
2021/04/17 02:09:57;;;;;;;10.25;7.47;;;5.10;99.90;;;;;;5030268;28;20240;-78
2021/04/17 02:12:23;;;;;;;12.18;7.70;;;5.30;99.90;;;;;;5030207;28;20241;-80
2021/04/17 02:14:49;;;;;;;10.85;7.18;;;5.20;99.90;;;;;;5029134;28;20373;-79
2021/04/17 02:17:23;;;;;;;14.02;9.45;;;5.10;99.90;;;;;;5030424;28;20265;-78
2021/04/17 02:19:55;;;;;;;9.73;7.85;;;5.00;99.90;;;;;;5030045;28;20237;-78
2021/04/17 02:22:24;;;;;;;12.52;7.85;;;5.10;99.90;;;;;;5029458;28;20333;-78
2021/04/17 02:24:52;;;;;;;12.52;8.48;;;5.00;99.90;;;;;;5028558;28;20331;-78
2021/04/17 02:27:19;;;;;;;14.65;9.27;;;4.90;99.90;;;;;;5029457;28;20207;-76
2021/04/17 02:29:50;;;;;;;10.48;7.82;;;5.10;99.90;;;;;;5028869;28;20215;-78
2021/04/17 02:32:17;;;;;;;12.32;8.20;;;5.10;99.90;;;;;;5029074;28;20257;-77
2021/04/17 02:34:43;;;;;;;10.90;8.02;;;5.10;99.90;;;;;;5019127;28;20240;-77
2021/04/17 02:37:10;;;;;;;11.73;8.10;;;4.90;99.90;;;;;;5042236;28;20677;-79
2021/04/17 02:39:38;;;;;;;10.00;7.80;;;5.00;99.90;;;;;;5033823;28;20221;-79
2021/04/17 02:42:05;;;;;;;11.95;7.72;;;5.00;99.90;;;;;;5031618;28;20203;-79
2021/04/17 02:44:32;;;;;;;11.70;8.18;;;5.30;99.90;;;;;;5029432;28;20642;-78
2021/04/17 02:46:58;;;;;;;11.77;7.30;;;5.10;99.90;;;;;;5030071;28;20222;-79
2021/04/17 02:49:24;;;;;;;11.10;7.88;;;5.10;99.90;;;;;;5029544;28;20664;-78
2021/04/17 02:51:51;;;;;;;10.85;7.40;;;5.20;99.90;;;;;;5029884;28;20229;-79
2021/04/17 02:54:17;;;;;;;12.80;7.95;;;5.20;99.90;;;;;;5023162;28;20518;-78
2021/04/17 02:56:44;;;;;;;10.55;7.60;;;5.20;99.90;;;;;;5010025;28;20291;-78
2021/04/17 02:59:11;;;;;;;11.38;8.32;;;5.10;99.90;;;;;;5011421;28;20242;-78
2021/04/17 03:01:37;;;;;;;11.80;8.30;;;5.10;99.90;;;;;;5014243;28;20208;-77
2021/04/17 03:04:04;;;;;;;11.27;8.05;;;4.90;99.90;;;;;;5014759;28;20235;-78
2021/04/17 03:06:31;;;;;;;10.48;8.00;;;4.90;99.90;;;;;;5025577;28;20269;-77
2021/04/17 03:08:57;;;;;;;14.07;8.88;;;4.90;99.90;;;;;;5030713;28;20219;-78
2021/04/17 03:11:24;;;;;;;11.77;8.43;;;5.00;99.90;;;;;;5030119;28;20677;-79
2021/04/17 03:13:51;;;;;;;12.65;7.75;;;5.30;99.90;;;;;;5031852;28;20314;-79
2021/04/17 03:16:18;;;;;;;12.52;8.52;;;5.10;99.90;;;;;;5033509;28;20207;-79
2021/04/17 03:18:44;;;;;;;11.70;8.57;;;5.00;99.90;;;;;;5031572;28;20277;-78
2021/04/17 03:21:11;;;;;;;14.93;9.18;;;5.10;99.90;;;;;;5030030;28;20214;-79
2021/04/17 03:23:37;;;;;;;11.70;8.93;;;5.10;99.90;;;;;;5029808;28;20261;-79
2021/04/17 03:26:04;;;;;;;14.88;9.30;;;5.10;99.90;;;;;;5010023;28;20211;-79
2021/04/17 03:28:30;;;;;;;13.57;9.32;;;5.00;99.90;;;;;;5009609;28;20708;-79
2021/04/17 03:30:58;;;;;;;13.25;9.68;;;5.00;99.90;;;;;;5010374;28;20203;-79
2021/04/17 03:33:24;;;;;;;13.52;9.80;;;4.90;99.90;;;;;;5012219;28;20286;-79
2021/04/17 03:35:51;;;;;;;11.85;8.27;;;5.00;99.90;;;;;;5031855;28;20207;-79
2021/04/17 03:38:18;;;;;;;14.68;10.98;;;5.10;99.90;;;;;;5049072;28;20207;-78
2021/04/17 03:40:44;;;;;;;13.43;9.38;;;5.10;99.90;;;;;;5049589;28;20264;-78
2021/04/17 03:43:11;;;;;;;14.82;9.40;;;5.10;99.90;;;;;;5054636;28;20313;-78
2021/04/17 03:45:37;;;;;;;12.70;9.38;;;5.20;99.90;;;;;;5044516;28;20322;-78
2021/04/17 03:48:06;;;;;;;12.75;9.30;;;5.10;99.90;;;;;;5036312;28;20666;-79
2021/04/17 03:50:32;;;;;;;14.50;9.82;;;5.00;99.90;;;;;;5037183;28;20260;-80
2021/04/17 03:52:58;;;;;;;14.18;10.63;;;5.10;99.90;;;;;;5036992;28;20238;-81
2021/04/17 03:55:25;;;;;;;13.77;10.40;;;5.20;99.90;;;;;;5024695;28;20286;-80
2021/04/17 03:57:51;;;;;;;14.45;9.50;;;5.00;99.90;;;;;;5018053;28;20203;-81
2021/04/17 04:00:20;;;;;;;13.70;9.73;;;5.20;99.90;;;;;;5016942;28;20258;-79
2021/04/17 04:02:47;;;;;;;14.32;10.07;;;5.00;99.90;;;;;;5016973;28;20299;-80
2021/04/17 04:05:15;;;;;;;14.35;10.13;;;4.80;99.90;;;;;;5027779;28;20218;-79
2021/04/17 04:07:42;;;;;;;13.70;9.68;;;5.00;99.90;;;;;;5036871;28;20207;-81
2021/04/17 04:10:11;;;;;;;13.40;9.90;;;5.10;99.90;;;;;;5033097;28;20208;-78
2021/04/17 04:12:37;;;;;;;15.80;10.73;;;4.80;99.90;;;;;;5032679;28;20222;-77
2021/04/17 04:15:05;;;;;;;13.00;10.02;;;4.90;99.90;;;;;;5032027;28;20692;-80
2021/04/17 04:17:31;;;;;;;15.60;10.35;;;5.00;99.90;;;;;;5037970;28;20238;-80
2021/04/17 04:19:58;;;;;;;15.60;10.40;;;4.70;99.90;;;;;;5040107;28;20298;-80
2021/04/17 04:22:25;;;;;;;13.23;9.18;;;4.70;99.90;;;;;;5034151;28;20203;-78
2021/04/17 04:24:51;;;;;;;16.77;10.80;;;4.70;99.90;;;;;;5026005;28;20223;-79
2021/04/17 04:27:17;;;;;;;15.00;10.50;;;4.80;99.90;;;;;;5014114;28;20212;-78
2021/04/17 04:29:44;;;;;;;14.82;10.60;;;4.90;99.90;;;;;;5013542;28;20694;-79
2021/04/17 04:32:10;;;;;;;13.52;9.60;;;4.90;99.90;;;;;;5013723;28;20250;-78
2021/04/17 04:34:36;;;;;;;16.20;11.35;;;5.00;99.90;;;;;;5018778;28;20325;-78
2021/04/17 04:37:03;;;;;;;12.70;10.00;;;5.00;99.90;;;;;;5046548;28;20293;-77
2021/04/17 04:39:30;;;;;;;15.95;10.55;;;5.00;99.90;;;;;;5051348;28;20206;-76
2021/04/17 04:41:57;;;;;;;15.35;10.95;;;4.90;99.90;;;;;;5051635;28;20636;-78
2021/04/17 04:44:23;;;;;;;13.88;10.07;;;5.00;99.90;;;;;;5046277;28;20233;-77
2021/04/17 04:46:49;;;;;;;15.63;11.45;;;5.00;99.90;;;;;;5033611;28;20302;-79
2021/04/17 04:49:15;;;;;;;14.07;10.57;;;4.70;99.90;;;;;;5034358;28;20519;-78
2021/04/17 04:51:42;;;;;;;13.18;10.75;;;4.90;99.90;;;;;;5033680;28;20210;-78
2021/04/17 04:54:08;;;;;;;14.05;10.50;;;5.00;99.90;;;;;;5030018;28;20231;-78
2021/04/17 04:56:36;;;;;;;15.00;11.32;;;4.90;99.90;;;;;;5012941;28;20254;-78
2021/04/17 04:59:02;;;;;;;15.20;11.13;;;4.90;99.90;;;;;;5016373;28;20282;-80
2021/04/17 05:01:29;;;;;;;15.82;11.27;;;4.90;99.90;;;;;;5017007;28;20346;-77
2021/04/17 05:03:55;;;;;;;15.10;11.05;;;4.90;99.90;;;;;;5023148;28;20246;-79
2021/04/17 05:06:21;;;;;;;18.88;11.80;;;4.90;99.90;;;;;;5036274;28;20314;-79
2021/04/17 05:08:48;;;;;;;18.23;12.30;;;4.90;99.90;;;;;;5034771;28;20310;-78
2021/04/17 05:11:14;;;;;;;20.98;12.00;;;4.90;99.90;;;;;;5034977;28;20294;-79
2021/04/17 05:13:41;;;;;;;18.85;12.25;;;4.70;99.90;;;;;;5028217;28;20285;-78
2021/04/17 05:16:08;;;;;;;16.52;12.45;;;5.10;99.90;;;;;;5013870;28;20299;-79
2021/04/17 05:18:35;;;;;;;15.55;11.60;;;4.90;99.90;;;;;;5012515;28;20215;-78
2021/04/17 05:21:01;;;;;;;17.80;11.85;;;5.00;99.90;;;;;;5011347;28;20212;-78
2021/04/17 05:23:27;;;;;;;16.45;12.50;;;5.10;99.90;;;;;;5013817;28;20254;-77
2021/04/17 05:25:54;;;;;;;16.65;12.50;;;5.20;99.90;;;;;;5030834;28;20207;-78
2021/04/17 05:28:20;;;;;;;15.75;12.63;;;5.10;99.90;;;;;;5033523;28;20282;-80
2021/04/17 05:30:47;;;;;;;16.65;11.95;;;5.10;99.90;;;;;;5035199;28;20208;-80
2021/04/17 05:33:14;;;;;;;18.35;12.82;;;5.20;99.90;;;;;;5036635;28;20772;-79
2021/04/17 05:35:40;;;;;;;18.20;13.30;;;5.20;99.90;;;;;;5041462;28;20301;-79
2021/04/17 05:38:06;;;;;;;19.17;13.45;;;5.10;99.90;;;;;;5056112;28;20207;-79
2021/04/17 05:40:33;;;;;;;16.92;13.25;;;5.20;99.90;;;;;;5051934;28;20367;-78
2021/04/17 05:42:59;;;;;;;15.05;11.63;;;5.40;99.90;;;;;;5051907;28;20313;-78
2021/04/17 05:45:28;;;;;;;19.15;14.57;;;5.60;99.90;;;;;;5030973;28;20221;-77
2021/04/17 05:47:55;;;;;;;18.00;13.40;;;5.50;99.90;;;;;;5029851;28;20214;-78
2021/04/17 05:50:22;;;;;;;17.50;12.55;;;5.60;99.90;;;;;;5031283;28;20298;-78
2021/04/17 05:52:48;;;;;;;18.98;14.32;;;5.70;99.90;;;;;;5031737;28;20317;-78
2021/04/17 05:55:15;;;;;;;18.13;12.55;;;5.50;99.90;;;;;;5014409;28;20303;-78
2021/04/17 05:57:41;;;;;;;19.17;13.95;;;5.70;99.90;;;;;;5011924;28;20208;-77
2021/04/17 06:00:09;;;;;;;17.40;13.13;;;5.60;99.90;;;;;;5010717;28;20314;-77
2021/04/17 06:02:35;;;;;;;18.55;13.68;;;5.80;99.90;;;;;;5011173;28;20286;-79
2021/04/17 06:05:03;;;;;;;16.02;12.40;;;5.90;99.90;;;;;;5028752;28;20310;-78
2021/04/17 06:07:30;;;;;;;21.15;13.60;;;5.80;99.90;;;;;;5034393;28;20289;-79
2021/04/17 06:09:56;;;;;;;18.85;14.07;;;6.00;99.90;;;;;;5033968;28;20207;-79
2021/04/17 06:12:22;;;;;;;20.80;13.95;;;6.10;99.90;;;;;;5036836;28;20278;-79
2021/04/17 06:14:49;;;;;;;18.10;14.20;;;6.00;99.90;;;;;;5020833;28;20424;-79
2021/04/17 06:17:15;;;;;;;21.13;14.38;;;6.20;99.90;;;;;;5011492;28;20212;-80
2021/04/17 06:19:41;;;;;;;20.20;13.25;;;6.20;99.90;;;;;;5012749;28;20665;-79
2021/04/17 06:22:08;;;;;;;18.67;14.05;;;6.30;99.90;;;;;;5011603;28;20235;-79
2021/04/17 06:24:35;;;;;;;19.33;13.73;;;6.50;99.90;;;;;;5026815;28;20341;-78
2021/04/17 06:27:01;;;;;;;19.27;14.60;;;6.30;99.90;;;;;;5032113;28;20210;-80
2021/04/17 06:29:28;;;;;;;18.88;14.00;;;6.40;99.90;;;;;;5031183;28;20206;-80
2021/04/17 06:31:54;;;;;;;18.38;13.82;;;6.40;99.90;;;;;;5034885;28;20653;-80
2021/04/17 06:34:20;;;;;;;18.88;14.13;;;6.70;99.90;;;;;;5030753;28;20330;-80
2021/04/17 06:36:49;;;;;;;18.23;13.30;;;6.80;99.90;;;;;;5049253;28;20649;-79
2021/04/17 06:39:17;;;;;;;20.80;15.32;;;6.80;99.90;;;;;;5054772;28;20684;-79
2021/04/17 06:41:47;;;;;;;19.35;13.90;;;6.90;99.90;;;;;;5054502;28;20202;-79
2021/04/17 06:44:16;;;;;;;19.52;14.30;;;6.90;99.90;;;;;;5047274;28;20215;-79
2021/04/17 06:46:43;;;;;;;19.83;14.23;;;6.90;99.90;;;;;;5022426;28;20557;-79
2021/04/17 06:49:12;;;;;;;17.08;13.60;;;6.80;99.90;;;;;;5019100;28;20242;-80
2021/04/17 06:51:44;;;;;;;17.40;13.55;;;7.30;99.90;;;;;;5017127;28;20308;-78
2021/04/17 06:54:13;;;;;;;16.15;12.77;;;7.30;99.90;;;;;;5021693;28;20223;-79
2021/04/17 06:56:42;;;;;;;18.50;13.70;;;7.30;99.90;;;;;;5032217;28;20210;-78
2021/04/17 06:59:09;;;;;;;19.85;15.55;;;7.00;99.90;;;;;;5031734;28;20213;-80
2021/04/17 07:01:39;;;;;;;19.63;14.02;;;6.90;99.90;;;;;;5032800;28;20626;-78
2021/04/17 07:04:06;;;;;;;18.95;14.85;;;7.00;99.90;;;;;;5030029;28;20220;-79
2021/04/17 07:06:33;;;;;;;18.27;13.80;;;7.10;99.90;;;;;;5026559;28;20217;-79
2021/04/17 07:08:59;;;;;;;19.57;14.67;;;7.30;99.90;;;;;;5032381;28;20225;-78
2021/04/17 07:11:26;;;;;;;18.65;13.82;;;7.30;99.90;;;;;;5031293;28;20464;-79
2021/04/17 07:14:10;;;;;;;19.98;14.25;;;7.40;99.90;;;;;;5026524;28;20260;-78
2021/04/17 07:16:56;;;;;;;19.47;14.93;;;7.60;99.90;;;;;;5015132;28;20238;-80
2021/04/17 07:19:23;;;;;;;21.42;14.25;;;7.20;99.90;;;;;;5016445;28;20978;-79
2021/04/17 07:21:50;;;;;;;20.73;14.68;;;7.60;99.90;;;;;;5016170;28;20531;-79
2021/04/17 07:24:24;;;;;;;16.88;12.90;;;7.60;99.90;;;;;;5023380;28;20225;-80
2021/04/17 07:26:51;;;;;;;18.25;13.50;;;7.60;99.90;;;;;;5036479;28;20289;-78
2021/04/17 07:29:18;;;;;;;20.23;13.63;;;7.60;99.90;;;;;;5035541;28;20234;-80
2021/04/17 07:31:50;;;;;;;24.05;15.05;;;7.60;99.90;;;;;;5035745;28;20385;-79
2021/04/17 07:34:20;;;;;;;16.65;12.30;;;7.50;99.90;;;;;;5027391;28;20800;-80
2021/04/17 07:36:49;;;;;;;20.70;13.38;;;7.60;99.90;;;;;;5027846;28;20535;-79
2021/04/17 07:39:30;;;;;;;23.13;15.00;;;7.80;99.90;;;;;;5034720;28;20302;-79
2021/04/17 07:42:01;;;;;;;22.60;12.80;;;7.70;99.90;;;;;;5034802;28;20536;-80
2021/04/17 07:44:37;;;;;;;18.40;14.05;;;7.70;99.90;;;;;;5037014;28;20223;-79
2021/04/17 07:47:05;;;;;;;23.50;14.25;;;7.80;99.90;;;;;;5038496;28;20210;-80
2021/04/17 07:49:32;;;;;;;20.05;13.93;;;7.80;99.90;;;;;;5038359;28;20672;-79
2021/04/17 07:52:02;;;;;;;16.98;13.43;;;7.90;99.90;;;;;;5038702;28;20207;-79
2021/04/17 07:54:29;;;;;;;18.65;13.40;;;8.10;99.90;;;;;;5037809;28;20238;-81
2021/04/17 07:56:56;;;;;;;20.20;12.80;;;8.20;99.90;;;;;;5039458;28;20203;-80
2021/04/17 07:59:24;;;;;;;17.13;12.80;;;8.30;99.90;;;;;;5039952;28;20453;-81
2021/04/17 08:01:52;;;;;;;17.50;12.27;;;8.30;99.90;;;;;;5042748;28;20563;-80
2021/04/17 08:04:24;;;;;;;20.00;12.00;;;8.20;99.90;;;;;;5037480;28;20329;-80
2021/04/17 08:06:52;;;;;;;18.83;12.30;;;8.30;99.90;;;;;;5037147;28;20393;-79
2021/04/17 08:09:21;;;;;;;18.67;12.20;;;8.60;99.90;;;;;;5041413;28;20453;-79
2021/04/17 08:11:50;;;;;;;16.90;12.70;;;8.60;99.90;;;;;;5045749;28;20514;-81
2021/04/17 08:14:18;;;;;;;17.83;11.50;;;8.50;99.90;;;;;;5021160;28;20490;-80
2021/04/17 08:16:45;;;;;;;15.53;10.60;;;8.40;99.90;;;;;;5034554;28;20453;-80
2021/04/17 08:19:12;;;;;;;16.30;10.77;;;8.80;99.90;;;;;;5034052;28;20537;-79
2021/04/17 08:21:39;;;;;;;14.95;11.25;;;8.90;99.90;;;;;;5034944;28;20454;-80
2021/04/17 08:24:07;;;;;;;13.45;10.48;;;8.80;99.90;;;;;;5032017;28;20216;-80
2021/04/17 08:26:34;;;;;;;16.60;10.90;;;8.50;99.90;;;;;;5016877;28;20218;-80
2021/04/17 08:29:01;;;;;;;14.70;10.90;;;8.70;99.90;;;;;;5014807;28;20482;-79
2021/04/17 08:31:30;;;;;;;15.68;10.65;;;8.50;99.90;;;;;;5015543;28;20455;-79
2021/04/17 08:34:12;;;;;;;13.03;8.40;;;8.70;99.90;;;;;;5017148;28;20243;-79
2021/04/17 08:36:42;;;;;;;12.70;8.60;;;8.60;99.80;;;;;;5046115;28;20454;-79
2021/04/17 08:39:29;;;;;;;13.27;8.60;;;8.60;99.90;;;;;;5053335;28;20427;-79
2021/04/17 08:41:56;;;;;;;11.63;8.20;;;8.90;99.00;;;;;;5054560;28;20449;-78
2021/04/17 08:44:32;;;;;;;15.50;8.63;;;8.80;98.90;;;;;;5047798;28;20470;-79
2021/04/17 08:46:59;;;;;;;16.13;10.50;;;9.00;98.40;;;;;;5034761;28;20442;-78
2021/04/17 08:49:27;;;;;;;13.23;8.93;;;8.90;98.70;;;;;;5034446;28;20925;-78
2021/04/17 08:52:19;;;;;;;10.93;9.20;;;8.70;98.90;;;;;;5035385;28;20541;-80
2021/04/17 08:54:47;;;;;;;15.60;8.60;;;8.90;98.90;;;;;;5026620;28;20475;-79
2021/04/17 08:57:15;;;;;;;12.13;8.87;;;8.90;99.00;;;;;;5017457;28;20550;-80
2021/04/17 08:59:43;;;;;;;13.03;9.17;;;8.90;98.40;;;;;;5017457;28;20577;-81
2021/04/17 09:02:12;;;;;;;16.00;11.07;;;9.40;98.00;;;;;;5014527;28;20910;-79
2021/04/17 09:04:57;;;;;;;14.93;10.40;;;9.60;97.80;;;;;;5020720;28;20791;-79
2021/04/17 09:07:23;;;;;;;10.33;8.57;;;9.60;97.50;;;;;;5034466;28;20450;-79
2021/04/17 09:09:50;;;;;;;12.07;8.30;;;9.70;97.20;;;;;;5031662;28;20445;-80
2021/04/17 09:12:34;;;;;;;14.80;8.17;;;9.60;97.10;;;;;;5035552;28;20549;-80
2021/04/17 09:15:03;;;;;;;12.30;7.70;;;9.50;97.00;;;;;;5035470;28;20457;-80
2021/04/17 09:17:44;;;;;;;12.27;8.10;;;9.50;96.70;;;;;;5036214;28;20527;-80
2021/04/17 09:20:13;;;;;;;11.03;8.57;;;9.50;96.50;;;;;;5036469;28;20450;-80
2021/04/17 09:22:47;;;;;;;11.07;7.37;;;9.60;96.60;;;;;;5034038;28;20438;-80
2021/04/17 09:25:35;;;;;;;16.27;9.23;;;9.20;96.30;;;;;;5033597;28;20811;-80
2021/04/17 09:28:01;;;;;;;14.63;9.40;;;9.50;96.70;;;;;;5033358;28;20537;-80
2021/04/17 09:30:27;;;;;;;12.73;9.33;;;9.70;96.60;;;;;;5037356;28;20907;-80
2021/04/17 09:32:56;;;;;;;11.17;8.77;;;9.70;96.40;;;;;;5037396;28;21062;-79
2021/04/17 09:35:24;;;;;;;11.40;8.20;;;9.80;95.90;;;;;;5025218;28;20429;-80
2021/04/17 09:38:00;;;;;;;11.97;7.83;;;9.80;95.20;;;;;;5038186;28;20503;-81
2021/04/17 09:40:30;;;;;;;10.63;8.20;;;9.50;95.60;;;;;;5038081;28;20463;-80
2021/04/17 09:42:57;;;;;;;11.53;9.00;;;9.10;95.90;;;;;;5042701;28;20491;-79
2021/04/17 09:45:30;;;;;;;10.70;8.50;;;9.60;96.00;;;;;;5047012;28;20450;-79
2021/04/17 09:47:57;;;;;;;13.30;8.77;;;9.90;95.40;;;;;;5037642;28;20454;-80
2021/04/17 09:50:26;;;;;;;12.30;8.30;;;9.70;95.50;;;;;;5033488;28;20450;-78
2021/04/17 09:52:53;;;;;;;13.60;9.03;;;9.80;95.50;;;;;;5039681;28;20498;-80
2021/04/17 09:55:20;;;;;;;13.50;9.07;;;9.80;95.50;;;;;;5044773;28;20530;-81
2021/04/17 09:57:48;;;;;;;9.80;6.27;;;9.70;95.70;;;;;;5040301;28;20486;-80
2021/04/17 10:00:15;;;;;;;12.67;7.83;;;9.70;95.80;;;;;;5037944;28;20541;-81
2021/04/17 10:02:44;;;;;;;11.50;8.40;;;9.70;95.50;;;;;;5038495;28;20446;-80
2021/04/17 10:05:12;;;;;;;11.00;9.07;;;9.80;96.30;;;;;;5026849;28;20463;-81
2021/04/17 10:07:43;;;;;;;12.70;8.57;;;9.80;95.70;;;;;;5034771;28;20533;-79
2021/04/17 10:10:11;;;;;;;8.43;6.00;;;10.00;94.70;;;;;;5032652;28;20488;-79
2021/04/17 10:12:48;;;;;;;14.27;6.40;;;10.40;92.70;;;;;;5033098;28;20846;-80
2021/04/17 10:15:15;;;;;;;10.03;6.40;;;10.10;92.70;;;;;;5034191;28;20533;-79
2021/04/17 10:17:42;;;;;;;9.83;6.20;;;10.10;92.40;;;;;;5034110;28;20493;-79
2021/04/17 10:20:10;;;;;;;9.27;6.50;;;10.30;91.80;;;;;;5038507;28;20464;-79
2021/04/17 10:22:37;;;;;;;10.70;7.53;;;10.20;91.90;;;;;;5043766;28;20420;-80
2021/04/17 10:25:07;;;;;;;11.73;6.80;;;10.50;92.00;;;;;;5029474;28;20523;-78
2021/04/17 10:27:36;;;;;;;9.77;7.00;;;10.60;91.80;;;;;;5014844;28;20445;-81
2021/04/17 10:30:15;;;;;;;11.27;7.20;;;10.50;91.40;;;;;;5015014;28;20513;-80
2021/04/17 10:32:41;;;;;;;10.20;6.67;;;10.60;91.60;;;;;;5016027;28;21058;-80
2021/04/17 10:35:10;;;;;;;9.27;6.40;;;10.60;91.40;;;;;;5045971;22;20501;-85
2021/04/17 10:37:43;;;;;;;9.70;7.20;;;10.60;91.50;;;;;;5034675;28;20513;-86
2021/04/17 10:40:12;;;;;;;7.77;5.70;;;10.80;91.40;;;;;;5031192;28;20489;-85
2021/04/17 10:42:51;;;;;;;9.33;6.70;;;10.80;90.90;;;;;;5033565;28;20446;-86
2021/04/17 10:45:19;;;;;;;10.83;6.40;;;11.00;90.50;;;;;;5039035;28;20531;-85
2021/04/17 10:47:59;;;;;;;7.53;5.30;;;11.30;90.00;;;;;;5038533;28;20428;-85
2021/04/17 10:50:28;;;;;;;8.53;5.93;;;11.40;87.80;;;;;;5037603;28;20428;-84
2021/04/17 10:52:58;;;;;;;10.43;5.70;;;10.80;88.70;;;;;;5039435;28;20595;-86
2021/04/17 10:55:40;;;;;;;6.33;4.33;;;10.60;89.70;;;;;;5030225;28;20995;-87
2021/04/17 10:58:19;;;;;;;11.20;6.17;;;10.70;90.20;;;;;;5023431;28;20548;-86
2021/04/17 11:00:49;;;;;;;7.37;5.63;;;10.90;89.30;;;;;;5025015;28;20478;-89
2021/04/17 11:03:16;;;;;;;7.07;4.00;;;10.80;88.50;;;;;;5021900;28;20470;-87
2021/04/17 11:05:44;;;;;;;6.77;4.27;;;10.90;88.00;;;;;;5025921;28;20844;-85
2021/04/17 11:08:11;;;;;;;8.40;4.77;;;11.10;88.10;;;;;;5024044;28;20468;-83
2021/04/17 11:10:40;;;;;;;9.60;4.40;;;10.90;87.40;;;;;;5025754;28;20463;-84
2021/04/17 11:13:07;;;;;;;9.10;5.73;;;10.80;87.80;;;;;;5032954;28;20497;-85
2021/04/17 11:15:34;;;;;;;7.27;4.43;;;10.90;88.30;;;;;;5040445;28;20474;-86
2021/04/17 11:18:11;;;;;;;9.83;5.70;;;11.00;86.90;;;;;;5040089;28;20545;-86
2021/04/17 11:20:50;;;;;;;6.80;4.80;;;11.00;87.10;;;;;;5039735;28;20512;-85
2021/04/17 11:23:34;;;;;;;12.30;5.67;;;11.20;86.90;;;;;;5040355;28;20509;-86
2021/04/17 11:26:02;;;;;;;6.73;5.00;;;11.30;83.90;;;;;;5023940;28;21031;-86
2021/04/17 11:28:29;;;;;;;10.33;5.10;;;11.50;84.10;;;;;;5021435;28;20538;-85
2021/04/17 11:30:55;;;;;;;6.53;4.90;;;11.40;83.90;;;;;;5023538;28;20456;-84
2021/04/17 11:33:23;;;;;;;6.50;4.97;;;11.50;83.90;;;;;;5021816;28;20486;-85
2021/04/17 11:35:49;;;;;;;6.77;4.60;;;11.40;83.20;;;;;;5040512;28;21047;-86
2021/04/17 11:38:16;;;;;;;8.10;5.13;;;11.30;83.80;;;;;;5041230;28;20492;-84
2021/04/17 11:40:42;;;;;;;7.53;5.70;;;11.30;84.40;;;;;;5048417;28;20430;-85
2021/04/17 11:43:10;;;;;;;6.77;3.97;;;11.30;84.50;;;;;;5052850;28;20451;-86
2021/04/17 11:45:36;;;;;;;5.10;3.27;;;11.10;84.60;;;;;;5040760;28;20463;-86
2021/04/17 11:48:04;;;;;;;7.20;4.53;;;11.10;84.90;;;;;;5033865;28;20435;-85
2021/04/17 11:50:30;;;;;;;8.43;4.80;;;11.20;84.60;;;;;;5032194;28;20470;-86
2021/04/17 11:52:57;;;;;;;5.93;4.17;;;11.30;83.70;;;;;;5032009;28;20492;-88
2021/04/17 11:55:23;;;;;;;10.63;4.63;;;11.40;83.60;;;;;;5037183;28;20476;-87
2021/04/17 11:57:50;;;;;;;6.70;4.77;;;11.60;82.70;;;;;;5046884;28;20517;-86
2021/04/17 12:00:19;;;;;;;8.50;4.00;;;11.80;82.00;;;;;;5043072;28;20440;-85
2021/04/17 12:02:45;;;;;;;6.50;4.40;;;12.00;80.70;;;;;;5047521;28;20464;-85
2021/04/17 12:05:12;;;;;;;8.73;4.30;;;12.00;80.00;;;;;;5030304;28;20510;-85
2021/04/17 12:07:39;;;;;;;118.13;72.53;;;12.10;79.50;;;;;;5034258;28;20512;-85
2021/04/17 12:10:07;;;;;;;27.80;17.37;;;12.30;78.50;;;;;;5041771;28;20433;-86
2021/04/17 12:12:34;;;;;;;8.60;5.50;;;12.30;77.30;;;;;;5039466;28;20433;-85
2021/04/17 12:15:01;;;;;;;6.93;5.00;;;12.30;77.10;;;;;;5033128;28;20577;-84
2021/04/17 12:17:28;;;;;;;6.83;4.67;;;12.40;77.60;;;;;;5021557;28;20465;-84
2021/04/17 12:19:56;;;;;;;8.13;4.00;;;12.40;77.10;;;;;;5020581;28;20439;-83
2021/04/17 12:22:22;;;;;;;7.97;5.80;;;12.80;76.70;;;;;;5022532;28;20831;-84
2021/04/17 12:24:49;;;;;;;7.27;3.90;;;12.80;76.10;;;;;;5030974;28;20520;-83
2021/04/17 12:27:21;;;;;;;4.87;2.97;;;12.70;75.50;;;;;;5047288;28;20455;-85
2021/04/17 12:29:48;;;;;;;5.40;3.30;;;12.40;76.70;;;;;;5041837;28;20992;-84
2021/04/17 12:32:14;;;;;;;9.67;6.30;;;12.00;76.60;;;;;;5042607;28;20481;-85
2021/04/17 12:34:42;;;;;;;7.43;3.77;;;12.00;77.50;;;;;;5034559;28;20888;-85
2021/04/17 12:37:08;;;;;;;7.70;4.20;;;12.20;76.80;;;;;;5042379;28;20425;-85
2021/04/17 12:39:35;;;;;;;7.53;3.70;;;12.10;77.00;;;;;;5042837;28;20488;-86
2021/04/17 12:42:01;;;;;;;9.20;3.60;;;12.20;75.60;;;;;;5042454;28;20482;-85
2021/04/17 12:44:28;;;;;;;6.80;4.20;;;12.40;75.20;;;;;;5039686;28;20469;-87
2021/04/17 12:46:54;;;;;;;6.60;3.80;;;12.40;75.50;;;;;;5042817;28;20448;-87
2021/04/17 12:49:20;;;;;;;6.53;4.10;;;12.30;75.20;;;;;;5040851;28;20443;-88
2021/04/17 12:51:48;;;;;;;9.97;4.63;;;12.40;76.00;;;;;;5040026;28;20571;-85
2021/04/17 12:54:14;;;;;;;7.70;3.87;;;12.60;74.80;;;;;;5042388;28;20489;-84
2021/04/17 12:56:40;;;;;;;6.47;3.60;;;12.80;72.80;;;;;;5046160;28;20477;-86
2021/04/17 12:59:07;;;;;;;9.53;4.60;;;12.90;71.10;;;;;;5043928;28;20429;-86
2021/04/17 13:01:34;;;;;;;5.60;3.90;;;12.90;69.90;;;;;;5045346;28;20488;-85
2021/04/17 13:04:00;;;;;;;9.80;4.77;;;12.70;70.00;;;;;;5043222;28;20481;-85
2021/04/17 13:06:29;;;;;;;6.33;4.20;;;12.60;70.60;;;;;;5034384;28;20528;-85